Terminal Aerodrome Forecast
Issued by NWS

Home | Current Version | Previous Version | Text Only | Print | Product List | Glossary On
Versions: 1 2 3 4 5 6 7 8 9 10 11 12 13 14 15 16
000
FTUS45 KGJT 272340
TAFTEX
TAF
KTEX 272340Z 2800/2824 14005KT P6SM VCTS SCT060CB BKN100
      TEMPO 2800/2803 VRB12G20KT P6SM -TSRA BKN060CB OVC100
     FM280300 14005KT P6SM SCT050 BKN100
     FM281800 25008KT P6SM VCTS SCT040CB BKN070=

USA.gov is the U.S. government's official web portal to all federal, state and local government web resources and services.